Latest Weather Observations for Pirlangimpi

IDD60901

Issued at 9:55 am CST Saturday 2 August 2014 (issued every 10 minutes, with the page automatically refreshed every 10 minutes)

About weather observations | Map of Darwin area stations | Latest observations for Darwin area | Other Formats
Station Details ID: 014142 Name: PIRLANGIMPI AIRPORT Lat: -11.40 Lon: 130.42 Height: 18.3 m
Data from the previous 72 hours. | See also: Recent months at Pirlangimpi
Date/Time
CST
Tmp

°C
App
Tmp
°C
Dew
Point
°C
Rel
Hum
%
Delta-T

°C
Wind Press
QNH
hPa
Press
MSL
hPa
Rain
since
9 am
mm
Dir
 
Spd
km/h
Gust
km/h
Spd
kts
Gust
kts
02/09:30am 27.1 29.1 21.6 72 3.7 ESE 13 19 7 10 1015.4 1015.3 0.0
02/09:00am 26.0 28.9 21.7 77 2.9 E 9 19 5 10 1015.5 1015.4 0.0
02/08:30am 23.6 27.4 21.7 89 1.3 SE 4 7 2 4 1015.3 1015.2 0.0
02/08:00am 22.8 26.5 21.4 92 0.9 SE 4 6 2 3 1015.1 - 0.0
02/07:30am 21.8 25.8 20.6 93 0.8 CALM 0 0 0 0 1014.9 1014.8 0.0
02/07:00am 21.8 25.4 20.6 93 0.8 SE 2 4 1 2 1014.4 - 0.0
02/06:30am 21.9 25.2 20.7 93 0.8 SE 4 6 2 3 1014.2 1014.1 0.0
02/06:00am 21.7 24.8 20.3 92 0.9 SE 4 6 2 3 1014.0 1013.9 0.0
02/05:30am 21.7 24.8 20.2 91 1.0 SE 4 4 2 2 1013.8 1013.7 0.0
02/05:00am 22.0 25.2 20.5 91 1.0 SE 4 6 2 3 1013.4 - 0.0
02/04:30am 22.4 25.8 21.0 92 0.9 ESE 4 7 2 4 1013.4 1013.3 0.0
02/04:00am 22.2 25.5 20.8 92 0.9 ESE 4 6 2 3 1013.3 - 0.0
02/03:30am 22.3 25.7 20.9 92 0.9 SE 4 6 2 3 1013.2 1013.1 0.0
02/03:00am 22.4 25.8 21.0 92 0.9 SSE 4 6 2 3 1013.5 1013.4 0.0
02/02:30am 22.4 25.8 21.0 92 0.9 SSE 4 6 2 3 1013.7 1013.6 0.0
02/02:00am 22.3 26.1 20.9 92 0.9 SSE 2 4 1 2 1013.9 - 0.0
02/01:30am 22.2 26.1 20.3 89 1.2 CALM 0 2 0 1 1014.0 1013.9 0.0
02/01:00am 22.0 25.0 20.1 89 1.2 S 4 4 2 2 1014.2 - 0.0
02/12:30am 22.3 25.7 20.2 88 1.4 S 2 4 1 2 1014.5 1014.4 0.0
02/12:00am 22.4 26.3 20.3 88 1.4 SSW 0 0 0 0 1014.4 1014.3 0.0
 
Date/Time
CST
Tmp

°C
App
Tmp
°C
Dew
Point
°C
Rel
Hum
%
Delta-T

°C
Wind Press
QNH
hPa
Press
MSL
hPa
Rain
since
9 am
mm
Dir
 
Spd
km/h
Gust
km/h
Spd
kts
Gust
kts
01/11:30pm 22.6 26.5 20.3 87 1.5 CALM 0 0 0 0 1014.2 1014.1 0.0
01/11:00pm 22.9 26.7 20.2 85 1.7 CALM 0 0 0 0 1014.2 - 0.0
01/10:30pm 23.3 26.9 20.6 85 1.8 NNE 2 4 1 2 1013.8 1013.7 0.0
01/10:00pm 23.6 26.9 20.7 84 1.9 NNE 4 6 2 3 1013.7 - 0.0
01/09:30pm 23.9 27.2 20.8 83 2.0 NE 4 7 2 4 1013.5 1013.4 0.0
01/09:00pm 24.2 27.2 20.9 82 2.2 NE 6 11 3 6 1013.1 1013.0 0.0
01/08:30pm 24.5 27.5 21.2 82 2.2 NE 7 13 4 7 1012.8 1012.7 0.0
01/08:00pm 24.9 27.9 21.2 80 2.4 ENE 7 13 4 7 1012.8 - 0.0
01/07:30pm 25.3 28.2 21.0 77 2.8 ENE 7 11 4 6 1012.4 1012.3 0.0
01/07:00pm 25.9 28.7 20.9 74 3.3 ENE 7 11 4 6 1012.1 - 0.0
01/06:30pm 26.9 29.4 21.0 70 3.9 ENE 9 15 5 8 1011.8 1011.7 0.0
01/06:00pm 27.6 29.4 20.4 65 4.7 ENE 11 17 6 9 1011.2 1011.1 0.0
01/05:30pm 28.6 30.9 20.6 62 5.3 NE 9 19 5 10 1011.0 1010.9 0.0
01/05:00pm 29.8 32.4 21.2 60 5.8 NE 9 19 5 10 1010.7 - 0.0
01/04:30pm 30.5 32.8 21.3 58 6.2 NNE 11 20 6 11 1010.5 1010.4 0.0
01/04:00pm 31.1 32.7 20.7 54 6.9 NE 13 24 7 13 1010.5 - 0.0
01/03:30pm 31.9 33.8 20.5 51 7.6 NE 11 19 6 10 1010.6 1010.5 0.0
01/03:00pm 33.3 35.2 20.5 47 8.6 ENE 11 20 6 11 1010.9 1010.8 0.0
01/02:30pm 33.1 34.9 20.3 47 8.5 ENE 11 24 6 13 1011.5 1011.4 0.0
01/02:00pm 33.3 35.2 20.5 47 8.6 ENE 11 20 6 11 1012.1 - 0.0
01/01:30pm 32.2 33.4 19.8 48 8.2 ENE 13 24 7 13 1012.9 1012.8 0.0
01/01:00pm 32.1 33.0 20.0 48 8.0 NE 15 26 8 14 1013.4 - 0.0
01/12:30pm 31.7 32.9 20.6 51 7.4 NE 15 22 8 12 1013.9 1013.8 0.0
01/12:00pm 31.4 32.2 20.7 53 7.1 ENE 17 26 9 14 1014.3 1014.2 0.0
01/11:30am 30.7 32.2 21.2 57 6.4 ENE 15 24 8 13 1014.9 1014.8 0.0
01/11:00am 30.8 32.5 21.6 58 6.2 NE 15 24 8 13 1015.2 - 0.0
01/10:30am 29.6 31.4 21.8 63 5.3 ENE 15 20 8 11 1015.4 1015.3 0.0
01/10:00am 28.2 30.3 21.0 65 4.8 ENE 11 19 6 10 1015.4 - 0.0
01/09:30am 26.9 29.9 21.9 74 3.3 E 9 17 5 9 1015.5 1015.4 0.0
01/09:00am 26.1 29.8 22.2 79 2.6 SE 6 13 3 7 1015.2 1015.1 0.0
01/08:30am 24.2 27.8 22.1 88 1.4 SE 6 7 3 4 1014.9 1014.8 0.0
01/08:00am 23.2 27.0 21.6 91 1.1 SE 4 7 2 4 1014.7 - 0.0
01/07:30am 22.6 26.3 21.4 93 0.8 SE 4 7 2 4 1014.6 1014.5 0.0
01/07:00am 22.4 25.6 21.2 93 0.8 SE 6 7 3 4 1014.5 - 0.0
01/06:30am 21.9 25.1 20.5 92 0.9 SE 4 6 2 3 1014.2 1014.1 0.0
01/06:00am 22.1 25.7 20.6 91 1.0 SSE 2 4 1 2 1014.0 1013.9 0.0
01/05:30am 22.4 26.2 20.9 91 1.0 SSE 2 4 1 2 1013.8 1013.7 0.0
01/05:00am 22.8 26.4 21.3 91 1.0 SSE 4 6 2 3 1013.7 - 0.0
01/04:30am 22.9 26.6 21.4 91 1.0 SE 4 6 2 3 1013.5 1013.4 0.0
01/04:00am 22.9 26.7 21.7 93 0.8 SSE 4 6 2 3 1013.4 - 0.0
01/03:30am 22.6 26.3 21.4 93 0.8 SE 4 6 2 3 1013.4 1013.3 0.0
01/03:00am 22.4 26.1 21.4 94 0.7 SE 4 6 2 3 1013.6 1013.5 0.0
01/02:30am 21.9 26.0 20.7 93 0.8 CALM 0 0 0 0 1013.6 1013.5 0.0
01/02:00am 22.1 26.2 20.7 92 0.9 CALM 0 0 0 0 1013.8 - 0.0
01/01:30am 21.9 26.0 20.7 93 0.8 CALM 0 0 0 0 1013.8 1013.7 0.0
01/01:00am 22.0 26.0 20.5 91 1.0 CALM 0 0 0 0 1013.7 - 0.0
01/12:30am 22.2 26.3 20.7 91 1.0 CALM 0 0 0 0 1013.8 1013.7 0.0
01/12:00am 22.6 26.3 20.7 89 1.2 SW 2 4 1 2 1013.6 1013.5 0.0
 
Date/Time
CST
Tmp

°C
App
Tmp
°C
Dew
Point
°C
Rel
Hum
%
Delta-T

°C
Wind Press
QNH
hPa
Press
MSL
hPa
Rain
since
9 am
mm
Dir
 
Spd
km/h
Gust
km/h
Spd
kts
Gust
kts
31/11:30pm 22.9 26.5 21.2 90 1.1 NE 4 6 2 3 1013.6 1013.5 0.0
31/11:00pm 23.0 26.9 21.1 89 1.2 NNE 2 6 1 3 1013.6 - 0.0
31/10:30pm 22.6 26.2 20.5 88 1.4 NE 2 4 1 2 1013.5 1013.4 0.0
31/10:00pm 23.1 26.8 20.8 87 1.5 NNE 2 4 1 2 1013.5 - 0.0
31/09:30pm 23.3 27.3 20.6 85 1.8 CALM 0 0 0 0 1013.2 1013.1 0.0
31/09:00pm 23.7 27.0 20.8 84 1.9 ENE 4 7 2 4 1012.8 1012.7 0.0
31/08:30pm 24.1 27.2 21.0 83 2.0 NE 6 11 3 6 1012.5 1012.4 0.0
31/08:00pm 24.4 27.3 20.7 80 2.4 ENE 6 9 3 5 1012.2 - 0.0
31/07:30pm 25.1 28.1 20.8 77 2.8 NE 6 9 3 5 1012.0 1011.9 0.0
31/07:00pm 25.6 28.3 20.2 72 3.5 NE 6 9 3 5 1012.0 - 0.0
31/06:30pm 27.3 29.6 19.9 64 4.8 ENE 7 11 4 6 1012.0 1011.9 0.0
31/06:00pm 28.6 30.5 19.8 59 5.8 ENE 9 17 5 9 1011.8 1011.7 0.0
31/05:30pm 30.0 31.9 19.7 54 6.8 ENE 9 15 5 8 1011.7 1011.6 0.0
31/05:00pm 31.1 34.0 20.7 54 6.9 NNE 6 15 3 8 1011.4 - 0.0
31/04:30pm 32.3 34.4 20.2 48 8.0 NE 9 15 5 8 1011.3 1011.2 0.0
31/04:00pm 33.5 33.2 16.4 36 10.8 ENE 13 22 7 12 1011.3 - 0.0
31/03:30pm 34.1 35.9 18.2 39 10.3 SE 6 11 3 6 1011.3 1011.2 0.0
31/03:00pm 34.2 34.8 17.8 37 10.6 ENE 11 17 6 9 1011.4 1011.3 0.0
31/02:30pm 34.3 35.4 17.9 37 10.6 ENE 9 19 5 10 1011.7 1011.6 0.0
31/02:00pm 33.6 33.8 17.7 38 10.2 E 13 26 7 14 1012.1 - 0.0
31/01:30pm 33.8 34.2 19.1 42 9.7 E 15 24 8 13 1012.6 1012.5 0.0
31/01:00pm 32.9 34.4 19.7 45 8.7 ESE 11 20 6 11 1013.2 - 0.0
31/12:30pm 32.3 33.3 19.5 46 8.4 E 13 26 7 14 1013.7 1013.6 0.0
31/12:00pm 31.7 33.6 20.6 51 7.4 ENE 11 19 6 10 1014.3 1014.2 0.0
31/11:30am 30.3 31.5 20.0 54 6.8 E 13 20 7 11 1015.0 1014.9 0.0
31/11:00am 31.0 32.3 20.9 55 6.7 ENE 15 20 8 11 1015.3 - 0.0
31/10:30am 30.0 31.3 20.8 57 6.1 ENE 15 24 8 13 1015.5 1015.4 0.0
31/10:00am 28.4 29.7 20.9 64 5.0 ENE 15 22 8 12 1015.4 - 0.0
31/09:30am 27.6 29.5 21.4 69 4.1 E 13 19 7 10 1015.5 1015.4 0.0
31/09:00am 25.8 29.1 21.9 79 2.6 E 7 13 4 7 1015.3 1015.2 0.0
31/08:30am 24.3 27.8 21.8 86 1.7 ESE 6 13 3 7 1015.4 1015.3 0.0
31/08:00am 23.1 26.8 21.4 90 1.1 SE 4 7 2 4 1015.2 - 0.0
31/07:30am 22.5 25.6 21.0 91 1.0 SE 6 7 3 4 1015.2 1015.1 0.0
31/07:00am 22.2 25.5 20.7 91 1.0 SE 4 6 2 3 1015.0 - 0.0
31/06:30am 22.1 25.3 20.4 90 1.1 SE 4 6 2 3 1014.8 1014.7 0.0
31/06:00am 22.2 25.2 20.1 88 1.4 SE 4 6 2 3 1014.8 1014.7 0.0
31/05:30am 22.6 26.1 20.3 87 1.5 SSE 2 4 1 2 1014.7 1014.6 0.0
31/05:00am 22.9 26.0 20.2 85 1.7 SSE 4 6 2 3 1014.4 - 0.0
31/04:30am 23.3 26.5 20.6 85 1.8 S 4 6 2 3 1014.4 1014.3 0.0
31/04:00am 23.6 26.6 20.9 85 1.8 SSE 6 9 3 5 1014.4 - 0.0
31/03:30am 23.9 27.6 21.4 86 1.6 S 4 7 2 4 1014.3 1014.2 0.0
31/03:00am 23.7 26.8 21.0 85 1.8 S 6 7 3 4 1014.3 1014.2 0.0
31/02:30am 23.4 26.8 20.9 86 1.6 SSE 4 6 2 3 1014.5 1014.4 0.0
31/02:00am 23.3 26.8 20.4 84 1.9 ESE 2 6 1 3 1014.4 - 0.0
31/01:30am 23.6 26.2 20.5 83 2.0 ENE 7 13 4 7 1014.2 1014.1 0.0
31/01:00am 23.6 25.8 20.3 82 2.1 ENE 9 17 5 9 1014.2 - 0.0
31/12:30am 23.7 25.7 20.8 84 1.9 NE 11 19 6 10 1014.0 1013.9 0.0
31/12:00am 23.6 25.9 20.7 84 1.9 NE 9 15 5 8 1014.0 1013.9 0.0
 
Date/Time
CST
Tmp

°C
App
Tmp
°C
Dew
Point
°C
Rel
Hum
%
Delta-T

°C
Wind Press
QNH
hPa
Press
MSL
hPa
Rain
since
9 am
mm
Dir
 
Spd
km/h
Gust
km/h
Spd
kts
Gust
kts
30/11:30pm 23.6 25.8 20.5 83 2.0 NE 9 15 5 8 1014.2 1014.1 0.0
30/11:00pm 23.4 26.2 20.5 84 1.9 NE 6 9 3 5 1014.3 - 0.0
30/10:30pm 23.5 26.6 20.2 82 2.1 NNE 4 9 2 5 1014.5 1014.4 0.0
30/10:00pm 23.7 26.8 20.2 81 2.3 NE 4 7 2 4 1014.7 - 0.0
30/09:30pm 24.0 27.1 20.3 80 2.4 NE 4 9 2 5 1014.7 1014.6 0.0
30/09:00pm 24.0 27.0 20.1 79 2.5 NE 4 7 2 4 1014.7 1014.6 0.0
30/08:30pm 24.5 27.5 20.0 76 2.9 NE 4 7 2 4 1014.6 1014.5 0.0
30/08:00pm 24.5 27.0 19.8 75 3.0 NE 6 13 3 7 1014.1 - 0.0
30/07:30pm 24.6 27.2 19.2 72 3.5 NE 4 6 2 3 1013.7 1013.6 0.0
30/07:00pm 25.4 27.9 19.1 68 4.0 NE 4 7 2 4 1013.4 - 0.0
30/06:30pm 26.7 28.3 19.1 63 4.9 NE 9 15 5 8 1013.0 1012.9 0.0
30/06:00pm 27.8 28.9 18.8 58 5.8 ENE 11 17 6 9 1012.9 1012.8 0.0
30/05:30pm 28.9 29.8 18.4 53 6.7 ENE 11 19 6 10 1012.5 1012.4 0.0
30/05:00pm 30.5 29.9 17.6 46 8.2 ENE 17 26 9 14 1012.4 - 0.0
30/04:30pm 31.9 31.5 16.2 38 9.8 ENE 13 22 7 12 1012.3 1012.2 0.0
30/04:00pm 33.0 32.1 15.9 35 10.7 ENE 15 22 8 12 1012.0 - 0.0
30/03:30pm 33.1 32.1 15.6 35 10.9 E 15 26 8 14 1012.0 1011.9 0.0
30/03:00pm 32.9 31.1 14.5 33 11.3 ENE 17 26 9 14 1012.0 1011.9 0.0
30/02:30pm 33.4 32.5 15.8 34 11.0 ENE 15 30 8 16 1012.4 1012.3 0.0
30/02:00pm 33.1 31.2 14.2 32 11.6 E 17 24 9 13 1012.8 - 0.0
30/01:30pm 32.9 30.6 14.0 32 11.5 E 19 28 10 15 1013.2 1013.1 0.0
30/01:00pm 33.2 30.2 13.8 31 11.8 E 22 35 12 19 1013.6 - 0.0
30/12:30pm 32.4 30.8 15.0 35 10.7 E 17 35 9 19 1014.0 1013.9 0.0
30/12:00pm 31.6 30.4 16.0 39 9.7 E 17 30 9 16 1014.6 1014.5 0.0
30/11:30am 30.4 28.7 15.7 41 9.1 E 19 30 10 16 1015.1 1015.0 0.0
30/11:00am 30.3 29.6 16.3 42 8.7 SE 15 22 8 12 1015.5 - 0.0
30/10:30am 29.0 28.0 17.5 49 7.3 E 19 30 10 16 1015.9 1015.8 0.0
30/10:00am 27.8 27.8 18.2 56 6.1 E 15 20 8 11 1016.0 - 0.0

Latest Capital City Observations: Canberra | Sydney | Melbourne | Brisbane | Adelaide | Perth | Hobart | Darwin

Other Formats:

Comma delimited format used in spreadsheet applications
http://www.bom.gov.au/fwo/IDD60901/IDD60901.94119.axf

JavaScript Object Notation format (JSON) in row-major order
http://www.bom.gov.au/fwo/IDD60901/IDD60901.94119.json